createdAt,value
2022-08-17T00:00:58.844Z,17.19
2022-08-17T00:01:58.817Z,17.16
2022-08-17T00:02:58.757Z,17.17
2022-08-17T00:03:58.761Z,17.20
2022-08-17T00:04:58.734Z,17.17
2022-08-17T00:05:58.721Z,17.14
2022-08-17T00:06:58.707Z,17.17
2022-08-17T00:07:58.692Z,17.13
2022-08-17T00:08:58.696Z,17.05
2022-08-17T00:09:58.664Z,17.05
2022-08-17T00:10:58.653Z,17.07
2022-08-17T00:12:40.910Z,17.13
2022-08-17T00:12:58.625Z,17.07
2022-08-17T00:13:58.612Z,17.02
2022-08-17T00:14:58.601Z,17.09
2022-08-17T00:15:58.593Z,17.17
2022-08-17T00:16:58.599Z,17.09
2022-08-17T00:17:58.561Z,17.02
2022-08-17T00:19:08.508Z,17.16
2022-08-17T00:19:58.538Z,17.13
2022-08-17T00:20:58.522Z,17.16
2022-08-17T00:22:31.705Z,17.01
2022-08-17T00:22:58.496Z,16.94
2022-08-17T00:23:58.484Z,17.02
2022-08-17T00:24:58.471Z,17.10
2022-08-17T00:25:58.458Z,17.01
2022-08-17T00:26:58.459Z,16.97
2022-08-17T00:27:58.432Z,17.09
2022-08-17T00:28:58.416Z,17.05
2022-08-17T00:29:58.405Z,16.92
2022-08-17T00:30:58.391Z,17.10
2022-08-17T00:31:58.380Z,17.12
2022-08-17T00:33:12.247Z,16.99
2022-08-17T00:33:58.350Z,16.99
2022-08-17T00:34:58.342Z,16.97
2022-08-17T00:35:58.325Z,17.07
2022-08-17T00:36:58.313Z,17.09
2022-08-17T00:37:58.336Z,17.05
2022-08-17T00:38:58.302Z,16.99
2022-08-17T00:39:58.362Z,17.10
2022-08-17T00:40:59.360Z,17.05
2022-08-17T00:41:58.256Z,17.04
2022-08-17T00:42:58.233Z,16.99
2022-08-17T00:43:58.220Z,16.99
2022-08-17T00:44:58.207Z,17.02
2022-08-17T00:45:58.203Z,17.07
2022-08-17T00:46:58.182Z,16.98
2022-08-17T00:47:58.166Z,17.07
2022-08-17T00:48:58.152Z,17.01
2022-08-17T00:49:58.150Z,17.02
2022-08-17T00:50:58.129Z,17.07
2022-08-17T00:51:58.113Z,16.92
2022-08-17T00:52:58.100Z,17.12
2022-08-17T00:53:58.087Z,17.05
2022-08-17T00:54:58.076Z,16.98
2022-08-17T00:55:58.062Z,16.92
2022-08-17T00:56:58.047Z,17.14
2022-08-17T00:57:58.034Z,17.09
2022-08-17T00:58:58.021Z,16.94
2022-08-17T01:00:02.742Z,17.14
2022-08-17T01:00:58.158Z,16.95
2022-08-17T01:01:57.979Z,17.09
2022-08-17T01:02:57.974Z,17.09
2022-08-17T01:03:59.265Z,16.95
2022-08-17T01:04:57.945Z,17.10
2022-08-17T01:05:57.935Z,17.12
2022-08-17T01:06:57.918Z,17.12
2022-08-17T01:07:57.907Z,16.99
2022-08-17T01:08:58.041Z,16.98
2022-08-17T01:09:57.882Z,16.99
2022-08-17T01:11:01.782Z,17.09
2022-08-17T01:11:57.849Z,16.99
2022-08-17T01:12:57.840Z,16.99
2022-08-17T01:13:57.821Z,16.98
2022-08-17T01:14:57.810Z,17.04
2022-08-17T01:15:57.799Z,17.01
2022-08-17T01:16:57.787Z,17.01
2022-08-17T01:17:57.771Z,16.98
2022-08-17T01:18:57.760Z,17.01
2022-08-17T01:19:57.746Z,17.01
2022-08-17T01:20:57.731Z,17.02
2022-08-17T01:21:57.722Z,17.05
2022-08-17T01:22:57.708Z,17.05
2022-08-17T01:23:57.697Z,17.01
2022-08-17T01:24:57.680Z,16.99
2022-08-17T01:25:57.668Z,16.97
2022-08-17T01:26:57.767Z,16.98
2022-08-17T01:27:57.638Z,16.91
2022-08-17T01:28:57.628Z,16.98
2022-08-17T01:29:57.615Z,16.95
2022-08-17T01:30:59.508Z,16.86
2022-08-17T01:31:57.585Z,16.84
2022-08-17T01:32:57.575Z,16.82
2022-08-17T01:33:57.560Z,16.82
2022-08-17T01:34:57.545Z,16.82
2022-08-17T01:35:57.536Z,16.83
2022-08-17T01:36:57.521Z,16.80
2022-08-17T01:37:57.505Z,16.76
2022-08-17T01:38:57.492Z,16.77
2022-08-17T01:39:57.595Z,16.79
2022-08-17T01:40:57.805Z,16.74
2022-08-17T01:41:57.454Z,16.73
2022-08-17T01:42:57.444Z,16.69
2022-08-17T01:43:57.430Z,16.69
2022-08-17T01:44:57.418Z,16.69
2022-08-17T01:46:03.762Z,16.65
2022-08-17T01:46:57.387Z,16.66
2022-08-17T01:47:57.377Z,16.64
2022-08-17T01:48:57.358Z,16.65
2022-08-17T01:49:57.344Z,16.59
2022-08-17T01:50:57.334Z,16.54
2022-08-17T01:51:57.317Z,16.57
2022-08-17T01:52:57.320Z,16.54
2022-08-17T01:53:57.292Z,16.49
2022-08-17T01:54:57.279Z,16.47
2022-08-17T01:55:57.280Z,16.44
2022-08-17T01:56:57.257Z,16.44
2022-08-17T01:57:57.241Z,16.50
2022-08-17T01:58:57.226Z,16.46
2022-08-17T01:59:57.213Z,16.54
2022-08-17T02:01:01.082Z,16.40
2022-08-17T02:01:57.255Z,16.40
2022-08-17T02:02:57.171Z,16.43
2022-08-17T02:04:00.754Z,16.44
2022-08-17T02:04:57.145Z,16.46
2022-08-17T02:05:57.137Z,16.40
2022-08-17T02:06:57.119Z,16.39
2022-08-17T02:08:00.349Z,16.41
2022-08-17T02:09:03.093Z,16.37
2022-08-17T02:09:57.081Z,16.37
2022-08-17T02:10:57.065Z,16.36
2022-08-17T02:11:57.049Z,16.36
2022-08-17T02:12:57.041Z,16.34
2022-08-17T02:14:02.427Z,16.39
2022-08-17T02:14:57.010Z,16.32
2022-08-17T02:15:56.999Z,16.32
2022-08-17T02:16:56.983Z,16.24
2022-08-17T02:17:56.974Z,16.24
2022-08-17T02:18:56.958Z,16.22
2022-08-17T02:19:56.948Z,16.24
2022-08-17T02:20:56.927Z,16.24
2022-08-17T02:21:56.917Z,16.25
2022-08-17T02:22:56.902Z,16.22
2022-08-17T02:23:56.891Z,16.18
2022-08-17T02:24:59.360Z,16.17
2022-08-17T02:25:56.865Z,16.09
2022-08-17T02:26:56.858Z,16.08
2022-08-17T02:27:56.837Z,16.10
2022-08-17T02:28:56.822Z,16.09
2022-08-17T02:29:56.808Z,16.06
2022-08-17T02:31:01.301Z,16.08
2022-08-17T02:31:56.780Z,15.98
2022-08-17T02:32:56.768Z,16.02
2022-08-17T02:34:03.632Z,16.05
2022-08-17T02:34:56.750Z,16.03
2022-08-17T02:35:56.726Z,16.02
2022-08-17T02:36:56.711Z,16.00
2022-08-17T02:37:56.720Z,15.99
2022-08-17T02:38:56.690Z,16.03
2022-08-17T02:39:56.718Z,16.00
2022-08-17T02:40:56.658Z,15.96
2022-08-17T02:41:56.653Z,16.00
2022-08-17T02:42:56.631Z,15.99
2022-08-17T02:43:56.618Z,15.98
2022-08-17T02:44:56.605Z,15.98
2022-08-17T02:45:56.593Z,15.96
2022-08-17T02:46:56.575Z,15.91
2022-08-17T02:47:56.566Z,15.98
2022-08-17T02:48:56.551Z,15.98
2022-08-17T02:49:56.533Z,15.90
2022-08-17T02:50:56.521Z,15.85
2022-08-17T02:51:56.511Z,15.88
2022-08-17T02:53:01.557Z,15.88
2022-08-17T02:54:40.152Z,15.94
2022-08-17T02:54:56.466Z,15.90
2022-08-17T02:55:56.455Z,15.90
2022-08-17T02:56:56.439Z,15.84
2022-08-17T02:57:56.424Z,15.88
2022-08-17T02:58:56.416Z,15.76
2022-08-17T02:59:56.401Z,15.90
2022-08-17T03:00:56.384Z,15.90
2022-08-17T03:01:56.428Z,15.90
2022-08-17T03:02:56.359Z,15.91
2022-08-17T03:03:56.343Z,15.84
2022-08-17T03:04:56.334Z,15.87
2022-08-17T03:05:56.327Z,15.98
2022-08-17T03:06:56.306Z,15.88
2022-08-17T03:07:56.292Z,15.96
2022-08-17T03:08:56.279Z,15.90
2022-08-17T03:09:56.264Z,15.87
2022-08-17T03:10:56.250Z,15.91
2022-08-17T03:11:56.237Z,15.94
2022-08-17T03:12:56.222Z,15.96
2022-08-17T03:13:56.208Z,15.94
2022-08-17T03:14:56.195Z,15.96
2022-08-17T03:15:56.180Z,15.92
2022-08-17T03:16:56.166Z,15.94
2022-08-17T03:17:56.157Z,15.98
2022-08-17T03:18:56.144Z,15.92
2022-08-17T03:19:56.129Z,15.92
2022-08-17T03:20:56.113Z,15.99
2022-08-17T03:21:56.098Z,16.03
2022-08-17T03:23:01.877Z,16.08
2022-08-17T03:23:56.073Z,16.12
2022-08-17T03:24:56.077Z,16.12
2022-08-17T03:25:56.042Z,16.13
2022-08-17T03:26:56.032Z,16.12
2022-08-17T03:27:56.017Z,16.08
2022-08-17T03:28:56.002Z,15.99
2022-08-17T03:29:55.989Z,16.02
2022-08-17T03:30:55.973Z,15.99
2022-08-17T03:31:55.961Z,16.00
2022-08-17T03:32:55.950Z,16.03
2022-08-17T03:33:55.936Z,15.99
2022-08-17T03:34:55.920Z,16.00
2022-08-17T03:35:55.908Z,15.98
2022-08-17T03:36:55.892Z,15.99
2022-08-17T03:38:00.203Z,15.91
2022-08-17T03:38:55.871Z,15.98
2022-08-17T03:39:55.916Z,15.98
2022-08-17T03:40:59.381Z,15.85
2022-08-17T03:41:55.824Z,15.84
2022-08-17T03:42:55.812Z,15.92
2022-08-17T03:43:55.797Z,15.94
2022-08-17T03:44:56.966Z,15.85
2022-08-17T03:45:55.769Z,15.85
2022-08-17T03:46:55.755Z,15.85
2022-08-17T03:47:55.742Z,15.85
2022-08-17T03:48:56.765Z,15.81
2022-08-17T03:49:55.720Z,15.80
2022-08-17T03:50:55.703Z,15.76
2022-08-17T03:51:55.690Z,15.76
2022-08-17T03:52:55.674Z,15.73
2022-08-17T03:53:55.661Z,15.73
2022-08-17T03:54:55.646Z,15.78
2022-08-17T03:55:55.631Z,15.73
2022-08-17T03:56:55.629Z,15.70
2022-08-17T03:57:55.604Z,15.76
2022-08-17T03:58:55.599Z,15.73
2022-08-17T03:59:55.578Z,15.78
2022-08-17T04:00:55.562Z,15.83
2022-08-17T04:01:55.604Z,15.76
2022-08-17T04:02:55.533Z,15.78
2022-08-17T04:03:55.524Z,15.72
2022-08-17T04:04:55.508Z,15.75
2022-08-17T04:05:55.504Z,15.80
2022-08-17T04:06:55.484Z,15.72
2022-08-17T04:07:55.466Z,15.81
2022-08-17T04:08:55.455Z,15.76
2022-08-17T04:09:55.445Z,15.87
2022-08-17T04:10:55.427Z,15.81
2022-08-17T04:11:55.413Z,15.76
2022-08-17T04:12:55.396Z,15.78
2022-08-17T04:13:55.386Z,15.88
2022-08-17T04:14:55.459Z,15.76
2022-08-17T04:15:55.356Z,15.85
2022-08-17T04:16:55.345Z,15.69
2022-08-17T04:17:55.330Z,15.75
2022-08-17T04:18:55.313Z,15.72
2022-08-17T04:19:55.327Z,15.78
2022-08-17T04:20:55.288Z,15.76
2022-08-17T04:21:55.274Z,15.66
2022-08-17T04:22:55.259Z,15.75
2022-08-17T04:23:55.247Z,15.80
2022-08-17T04:24:55.235Z,15.76
2022-08-17T04:25:55.220Z,15.78
2022-08-17T04:26:55.204Z,15.81
2022-08-17T04:27:55.191Z,15.78
2022-08-17T04:28:55.177Z,15.72
2022-08-17T04:29:56.104Z,15.78
2022-08-17T04:30:55.147Z,15.83
2022-08-17T04:31:55.136Z,15.84
2022-08-17T04:33:04.018Z,15.73
2022-08-17T04:33:55.114Z,15.75
2022-08-17T04:34:55.108Z,15.80
2022-08-17T04:35:55.103Z,15.76
2022-08-17T04:36:55.068Z,15.84
2022-08-17T04:37:55.056Z,15.87
2022-08-17T04:38:57.122Z,15.91
2022-08-17T04:39:55.103Z,15.88
2022-08-17T04:40:55.012Z,15.84
2022-08-17T04:41:54.997Z,15.85
2022-08-17T04:43:00.868Z,15.87
2022-08-17T04:43:54.971Z,15.94
2022-08-17T04:44:54.958Z,15.83
2022-08-17T04:45:55.651Z,15.90
2022-08-17T04:46:54.927Z,15.88
2022-08-17T04:47:54.919Z,15.87
2022-08-17T04:48:54.901Z,15.90
2022-08-17T04:49:54.890Z,15.88
2022-08-17T04:50:54.872Z,15.96
2022-08-17T04:51:56.806Z,15.91
2022-08-17T04:52:55.118Z,15.88
2022-08-17T04:53:55.048Z,15.87
2022-08-17T04:54:54.818Z,15.96
2022-08-17T04:55:54.805Z,15.91
2022-08-17T04:56:54.797Z,15.91
2022-08-17T04:57:54.784Z,15.83
2022-08-17T04:58:54.765Z,15.88
2022-08-17T04:59:54.760Z,15.90
2022-08-17T05:00:54.770Z,15.98
2022-08-17T05:01:54.721Z,15.84
2022-08-17T05:02:54.932Z,16.00
2022-08-17T05:03:54.700Z,15.98
2022-08-17T05:04:54.682Z,15.96
2022-08-17T05:05:54.666Z,15.99
2022-08-17T05:06:54.655Z,16.03
2022-08-17T05:07:54.640Z,16.02
2022-08-17T05:08:54.628Z,16.05
2022-08-17T05:09:54.616Z,16.08
2022-08-17T05:10:54.600Z,16.06
2022-08-17T05:11:55.168Z,16.05
2022-08-17T05:12:54.571Z,16.12
2022-08-17T05:13:54.559Z,16.18
2022-08-17T05:14:54.546Z,16.21
2022-08-17T05:15:54.533Z,16.17
2022-08-17T05:16:54.517Z,16.25
2022-08-17T05:17:54.503Z,16.37
2022-08-17T05:18:54.491Z,16.43
2022-08-17T05:19:54.476Z,16.41
2022-08-17T05:20:54.463Z,16.50
2022-08-17T05:21:54.450Z,16.59
2022-08-17T05:22:54.435Z,16.62
2022-08-17T05:23:56.184Z,16.59
2022-08-17T05:24:55.615Z,16.68
2022-08-17T05:25:54.419Z,16.76
2022-08-17T05:26:54.383Z,16.66
2022-08-17T05:27:54.364Z,16.92
2022-08-17T05:28:54.351Z,16.92
2022-08-17T05:29:54.339Z,17.05
2022-08-17T05:30:54.327Z,16.92
2022-08-17T05:31:54.314Z,17.10
2022-08-17T05:32:54.535Z,17.20
2022-08-17T05:33:54.286Z,17.34
2022-08-17T05:34:54.271Z,17.41
2022-08-17T05:35:54.269Z,17.50
2022-08-17T05:36:54.246Z,17.56
2022-08-17T05:37:54.236Z,17.66
2022-08-17T05:38:54.218Z,17.66
2022-08-17T05:39:54.275Z,17.76
2022-08-17T05:40:54.191Z,17.88
2022-08-17T05:41:54.179Z,17.82
2022-08-17T05:42:54.164Z,17.86
2022-08-17T05:43:56.421Z,17.86
2022-08-17T05:44:54.137Z,17.98
2022-08-17T05:45:55.291Z,18.12
2022-08-17T05:46:54.110Z,18.24
2022-08-17T05:47:54.101Z,18.28
2022-08-17T05:48:54.089Z,18.37
2022-08-17T05:49:54.073Z,18.49
2022-08-17T05:50:54.059Z,18.63
2022-08-17T05:51:54.049Z,18.71
2022-08-17T05:52:54.033Z,18.73
2022-08-17T05:53:54.022Z,18.92
2022-08-17T05:54:54.012Z,18.96
2022-08-17T05:55:53.997Z,19.20
2022-08-17T05:56:53.982Z,19.34
2022-08-17T05:57:56.019Z,19.53
2022-08-17T05:58:53.961Z,19.64
2022-08-17T05:59:53.946Z,19.85
2022-08-17T06:00:53.971Z,19.99
2022-08-17T06:01:53.920Z,20.26
2022-08-17T06:02:54.290Z,20.37
2022-08-17T06:03:53.899Z,20.52
2022-08-17T06:04:53.889Z,20.68
2022-08-17T06:05:53.870Z,20.90
2022-08-17T06:06:53.859Z,21.11
2022-08-17T06:07:53.847Z,21.19
2022-08-17T06:08:53.836Z,21.26
2022-08-17T06:09:53.822Z,21.25
2022-08-17T06:10:53.812Z,21.29
2022-08-17T06:11:54.016Z,21.26
2022-08-17T06:12:53.789Z,21.26
2022-08-17T06:13:53.785Z,21.37
2022-08-17T06:14:53.766Z,21.35
2022-08-17T06:15:53.756Z,21.37
2022-08-17T06:16:53.737Z,21.51
2022-08-17T06:17:53.731Z,21.54
2022-08-17T06:18:53.717Z,21.48
2022-08-17T06:19:53.707Z,21.66
2022-08-17T06:20:53.693Z,21.75
2022-08-17T06:21:53.688Z,21.75
2022-08-17T06:22:53.671Z,21.88
2022-08-17T06:23:53.663Z,21.92
2022-08-17T06:24:53.653Z,22.04
2022-08-17T06:25:53.639Z,22.07
2022-08-17T06:26:53.632Z,22.06
2022-08-17T06:27:54.051Z,22.06
2022-08-17T06:28:53.602Z,22.03
2022-08-17T06:29:53.595Z,22.06
2022-08-17T06:30:59.496Z,22.03
2022-08-17T06:31:53.573Z,22.06
2022-08-17T06:32:53.559Z,22.12
2022-08-17T06:33:53.551Z,22.10
2022-08-17T06:34:53.545Z,22.08
2022-08-17T06:35:53.531Z,22.12
2022-08-17T06:36:53.513Z,22.14
2022-08-17T06:37:53.523Z,22.03
2022-08-17T06:38:53.491Z,22.10
2022-08-17T06:39:53.501Z,22.14
2022-08-17T06:40:53.473Z,22.18
2022-08-17T06:41:53.461Z,22.08
2022-08-17T06:42:58.826Z,22.18
2022-08-17T06:43:53.439Z,22.08
2022-08-17T06:44:53.427Z,22.15
2022-08-17T06:45:53.417Z,22.12
2022-08-17T06:46:53.407Z,22.16
2022-08-17T06:47:53.396Z,22.18
2022-08-17T06:48:53.384Z,22.18
2022-08-17T06:49:55.551Z,22.18
2022-08-17T06:50:53.364Z,22.19
2022-08-17T06:51:53.352Z,22.26
2022-08-17T06:52:53.340Z,22.23
2022-08-17T06:53:53.332Z,22.22
2022-08-17T06:54:53.320Z,22.36
2022-08-17T06:55:53.310Z,22.34
2022-08-17T06:56:55.024Z,22.53
2022-08-17T06:57:53.289Z,22.51
2022-08-17T06:58:53.281Z,22.65
2022-08-17T06:59:54.814Z,22.71
2022-08-17T07:00:58.491Z,22.91
2022-08-17T07:01:53.248Z,22.98
2022-08-17T07:02:53.522Z,23.11
2022-08-17T07:03:53.226Z,23.36
2022-08-17T07:04:53.215Z,23.45
2022-08-17T07:05:53.202Z,23.54
2022-08-17T07:06:53.198Z,23.71
2022-08-17T07:07:53.183Z,23.66
2022-08-17T07:08:53.172Z,23.74
2022-08-17T07:09:53.161Z,23.88
2022-08-17T07:10:53.151Z,23.94
2022-08-17T07:11:53.140Z,23.86
2022-08-17T07:12:53.129Z,23.91
2022-08-17T07:13:53.120Z,24.04
2022-08-17T07:14:53.110Z,24.06
2022-08-17T07:15:56.962Z,24.11
2022-08-17T07:16:53.089Z,24.11
2022-08-17T07:17:53.088Z,24.18
2022-08-17T07:18:53.075Z,24.25
2022-08-17T07:19:53.064Z,24.29
2022-08-17T07:20:53.053Z,24.32
2022-08-17T07:21:53.046Z,24.32
2022-08-17T07:22:57.686Z,24.50
2022-08-17T07:23:53.026Z,24.48
2022-08-17T07:24:53.015Z,24.53
2022-08-17T07:25:53.009Z,24.62
2022-08-17T07:26:52.997Z,24.62
2022-08-17T07:27:53.074Z,24.66
2022-08-17T07:28:52.977Z,24.81
2022-08-17T07:29:52.972Z,24.78
2022-08-17T07:30:52.959Z,24.86
2022-08-17T07:31:52.952Z,24.92
2022-08-17T07:32:52.943Z,24.84
2022-08-17T07:33:52.932Z,24.96
2022-08-17T07:34:52.929Z,25.04
2022-08-17T07:35:52.924Z,24.92
2022-08-17T07:36:52.907Z,25.03
2022-08-17T07:37:52.901Z,24.92
2022-08-17T07:38:52.893Z,24.97
2022-08-17T07:39:59.655Z,25.01
2022-08-17T07:40:52.870Z,25.01
2022-08-17T07:41:58.049Z,24.96
2022-08-17T07:42:52.854Z,25.06
2022-08-17T07:43:52.841Z,25.01
2022-08-17T07:44:52.834Z,24.99
2022-08-17T07:45:52.821Z,24.99
2022-08-17T07:46:52.822Z,24.96
2022-08-17T07:47:52.809Z,24.88
2022-08-17T07:48:52.801Z,24.96
2022-08-17T07:49:52.789Z,25.00
2022-08-17T07:50:52.781Z,24.96
2022-08-17T07:51:52.773Z,24.99
2022-08-17T07:52:52.780Z,24.94
2022-08-17T07:53:52.755Z,25.09
2022-08-17T07:54:52.748Z,25.09
2022-08-17T07:55:52.738Z,24.97
2022-08-17T07:56:52.733Z,25.09
2022-08-17T07:57:52.767Z,25.09
2022-08-17T07:58:52.707Z,25.15
2022-08-17T07:59:52.698Z,25.21
2022-08-17T08:00:52.690Z,25.15
2022-08-17T08:01:56.163Z,25.19
2022-08-17T08:02:52.676Z,25.24
2022-08-17T08:03:52.864Z,25.26
2022-08-17T08:05:01.367Z,25.26
2022-08-17T08:05:52.648Z,25.30
2022-08-17T08:06:52.646Z,25.40
2022-08-17T08:07:52.761Z,25.41
2022-08-17T08:08:52.627Z,25.43
2022-08-17T08:09:52.609Z,25.43
2022-08-17T08:10:52.609Z,25.49
2022-08-17T08:11:52.595Z,25.46
2022-08-17T08:12:53.785Z,25.44
2022-08-17T08:13:52.580Z,25.54
2022-08-17T08:14:52.582Z,25.55
2022-08-17T08:15:54.173Z,25.66
2022-08-17T08:16:52.554Z,25.61
2022-08-17T08:17:52.941Z,25.62
2022-08-17T08:18:55.405Z,25.71
2022-08-17T08:19:52.527Z,25.71
2022-08-17T08:20:53.875Z,25.77
2022-08-17T08:21:52.519Z,25.70
2022-08-17T08:22:52.502Z,25.73
2022-08-17T08:23:52.494Z,25.70
2022-08-17T08:24:52.537Z,25.77
2022-08-17T08:25:53.684Z,25.78
2022-08-17T08:26:52.480Z,25.81
2022-08-17T08:27:52.512Z,25.83
2022-08-17T08:28:52.453Z,25.88
2022-08-17T08:29:52.441Z,25.80
2022-08-17T08:30:52.438Z,25.78
2022-08-17T08:31:52.426Z,25.83
2022-08-17T08:32:52.417Z,25.78
2022-08-17T08:33:52.410Z,25.81
2022-08-17T08:35:02.218Z,25.83
2022-08-17T08:35:52.395Z,25.73
2022-08-17T08:37:14.453Z,25.74
2022-08-17T08:37:52.632Z,25.68
2022-08-17T08:38:52.369Z,25.63
2022-08-17T08:39:52.394Z,25.62
2022-08-17T08:40:52.378Z,25.59
2022-08-17T08:41:52.344Z,25.56
2022-08-17T08:42:52.337Z,25.58
2022-08-17T08:43:53.282Z,25.46
2022-08-17T08:44:59.797Z,25.51
2022-08-17T08:45:52.308Z,25.49
2022-08-17T08:46:52.302Z,25.39
2022-08-17T08:47:52.564Z,25.36
2022-08-17T08:48:56.534Z,25.36
2022-08-17T08:50:03.922Z,25.26
2022-08-17T08:50:52.266Z,25.29
2022-08-17T08:51:52.259Z,25.29
2022-08-17T08:52:52.248Z,25.19
2022-08-17T08:53:52.240Z,25.25
2022-08-17T08:54:52.240Z,25.16
2022-08-17T08:55:52.232Z,25.09
2022-08-17T08:57:21.869Z,25.03
2022-08-17T08:57:52.363Z,24.99
2022-08-17T08:58:52.196Z,25.09
2022-08-17T08:59:57.841Z,24.94
2022-08-17T09:00:52.177Z,25.04
2022-08-17T09:01:52.244Z,24.96
2022-08-17T09:02:52.159Z,24.96
2022-08-17T09:03:53.500Z,24.96
2022-08-17T09:05:13.369Z,25.07
2022-08-17T09:05:52.131Z,25.09
2022-08-17T09:06:52.124Z,25.15
2022-08-17T09:07:57.307Z,25.12
2022-08-17T09:08:52.131Z,25.14
2022-08-17T09:09:53.362Z,25.25
2022-08-17T09:10:52.090Z,25.24
2022-08-17T09:12:01.211Z,25.37
2022-08-17T09:12:52.071Z,25.41
2022-08-17T09:13:54.366Z,25.34
2022-08-17T09:14:52.051Z,25.37
2022-08-17T09:15:52.043Z,25.40
2022-08-17T09:16:52.041Z,25.39
2022-08-17T09:18:08.515Z,25.36
2022-08-17T09:19:03.147Z,25.34
2022-08-17T09:19:52.009Z,25.26
2022-08-17T09:20:52.005Z,25.43
2022-08-17T09:21:51.999Z,25.30
2022-08-17T09:22:51.985Z,25.31
2022-08-17T09:23:51.974Z,25.37
2022-08-17T09:24:51.964Z,25.37
2022-08-17T09:25:51.958Z,25.33
2022-08-17T09:26:51.952Z,25.34
2022-08-17T09:27:52.320Z,25.36
2022-08-17T09:28:51.931Z,25.37
2022-08-17T09:29:51.923Z,25.43
2022-08-17T09:30:51.912Z,25.44
2022-08-17T09:31:51.903Z,25.52
2022-08-17T09:32:51.894Z,25.58
2022-08-17T09:33:51.886Z,25.68
2022-08-17T09:34:51.875Z,25.70
2022-08-17T09:35:51.876Z,25.73
2022-08-17T09:36:51.863Z,25.71
2022-08-17T09:37:52.136Z,25.74
2022-08-17T09:38:51.843Z,25.78
2022-08-17T09:39:51.860Z,25.77
2022-08-17T09:40:51.831Z,25.81
2022-08-17T09:41:51.814Z,25.83
2022-08-17T09:42:51.811Z,25.81
2022-08-17T09:43:51.798Z,25.80
2022-08-17T09:44:51.793Z,25.80
2022-08-17T09:45:51.781Z,25.71
2022-08-17T09:46:51.777Z,25.71
2022-08-17T09:47:51.958Z,25.80
2022-08-17T09:48:51.758Z,25.73
2022-08-17T09:49:51.746Z,25.71
2022-08-17T09:51:03.686Z,25.71
2022-08-17T09:51:51.731Z,25.70
2022-08-17T09:52:51.722Z,25.67
2022-08-17T09:53:51.711Z,25.74
2022-08-17T09:54:51.703Z,25.71
2022-08-17T09:55:51.695Z,25.71
2022-08-17T09:57:05.989Z,25.74
2022-08-17T09:57:51.865Z,25.81
2022-08-17T09:58:51.669Z,25.81
2022-08-17T09:59:51.661Z,25.81
2022-08-17T10:00:51.717Z,25.85
2022-08-17T10:01:51.644Z,25.88
2022-08-17T10:02:51.640Z,25.83
2022-08-17T10:03:51.634Z,25.80
2022-08-17T10:04:51.620Z,25.91
2022-08-17T10:05:56.348Z,25.83
2022-08-17T10:06:51.603Z,25.92
2022-08-17T10:07:51.796Z,25.93
2022-08-17T10:08:51.584Z,25.96
2022-08-17T10:09:51.578Z,25.99
2022-08-17T10:10:52.499Z,25.98
2022-08-17T10:11:51.557Z,25.98
2022-08-17T10:12:53.140Z,25.98
2022-08-17T10:13:53.303Z,25.95
2022-08-17T10:14:53.599Z,25.96
2022-08-17T10:15:51.527Z,26.08
2022-08-17T10:16:51.515Z,25.99
2022-08-17T10:17:51.710Z,26.11
2022-08-17T10:18:51.499Z,26.19
2022-08-17T10:19:51.496Z,26.18
2022-08-17T10:20:51.484Z,26.23
2022-08-17T10:22:01.136Z,26.30
2022-08-17T10:22:54.951Z,26.31
2022-08-17T10:23:51.460Z,26.29
2022-08-17T10:25:02.064Z,26.36
2022-08-17T10:25:55.696Z,26.37
2022-08-17T10:26:56.490Z,26.44
2022-08-17T10:27:51.645Z,26.52
2022-08-17T10:28:51.437Z,26.48
2022-08-17T10:29:51.413Z,26.52
2022-08-17T10:30:51.402Z,26.61
2022-08-17T10:31:51.393Z,26.61
2022-08-17T10:33:00.695Z,26.68
2022-08-17T10:34:45.840Z,26.88
2022-08-17T10:35:46.067Z,27.00
2022-08-17T10:37:51.687Z,27.26
2022-08-17T10:38:51.249Z,27.22
2022-08-17T10:39:52.902Z,27.37
2022-08-17T10:40:51.246Z,27.38
2022-08-17T10:41:51.501Z,27.34
2022-08-17T10:42:51.220Z,27.43
2022-08-17T10:44:37.312Z,27.30
2022-08-17T10:44:51.202Z,27.22
2022-08-17T10:45:51.197Z,27.23
2022-08-17T10:46:51.187Z,27.23
2022-08-17T10:47:55.650Z,27.15
2022-08-17T10:48:51.173Z,27.15
2022-08-17T10:49:51.160Z,27.10
2022-08-17T10:50:51.156Z,27.05
2022-08-17T10:51:51.149Z,27.00
2022-08-17T10:52:51.138Z,26.96
2022-08-17T10:53:51.130Z,26.83
2022-08-17T10:54:51.125Z,26.85
2022-08-17T10:55:51.120Z,26.81
2022-08-17T10:56:51.111Z,26.74
2022-08-17T10:57:51.344Z,26.64
2022-08-17T10:58:51.091Z,26.71
2022-08-17T10:59:51.089Z,26.64
2022-08-17T11:00:51.139Z,26.66
2022-08-17T11:01:51.071Z,26.67
2022-08-17T11:02:51.348Z,26.67
2022-08-17T11:03:51.050Z,26.60
2022-08-17T11:04:51.045Z,26.63
2022-08-17T11:05:51.038Z,26.66
2022-08-17T11:06:51.029Z,26.60
2022-08-17T11:07:51.027Z,26.53
2022-08-17T11:08:51.013Z,26.53
2022-08-17T11:09:51.004Z,26.60
2022-08-17T11:10:52.273Z,26.66
2022-08-17T11:11:50.986Z,26.67
2022-08-17T11:12:51.248Z,26.63
2022-08-17T11:13:50.974Z,26.61
2022-08-17T11:14:50.966Z,26.74
2022-08-17T11:15:50.954Z,26.64
2022-08-17T11:16:50.951Z,26.66
2022-08-17T11:17:50.945Z,26.71
2022-08-17T11:18:50.935Z,26.70
2022-08-17T11:19:50.927Z,26.66
2022-08-17T11:20:50.914Z,26.68
2022-08-17T11:21:50.905Z,26.67
2022-08-17T11:22:51.044Z,26.66
2022-08-17T11:23:50.892Z,26.59
2022-08-17T11:24:50.883Z,26.60
2022-08-17T11:25:50.874Z,26.56
2022-08-17T11:26:50.866Z,26.49
2022-08-17T11:27:50.858Z,26.45
2022-08-17T11:28:52.884Z,26.34
2022-08-17T11:29:53.678Z,26.33
2022-08-17T11:30:50.833Z,26.29
2022-08-17T11:31:50.825Z,26.23
2022-08-17T11:32:54.730Z,26.18
2022-08-17T11:33:50.807Z,26.13
2022-08-17T11:34:50.801Z,25.96
2022-08-17T11:35:50.790Z,25.95
2022-08-17T11:36:50.782Z,25.89
2022-08-17T11:37:50.774Z,25.85
2022-08-17T11:38:50.765Z,25.68
2022-08-17T11:39:50.821Z,25.63
2022-08-17T11:40:50.747Z,25.56
2022-08-17T11:41:50.743Z,25.51
2022-08-17T11:42:50.854Z,25.52
2022-08-17T11:43:50.721Z,25.36
2022-08-17T11:44:50.711Z,25.37
2022-08-17T11:45:50.701Z,25.25
2022-08-17T11:46:50.983Z,25.26
2022-08-17T11:48:16.116Z,25.36
2022-08-17T11:48:50.676Z,25.39
2022-08-17T11:49:50.664Z,25.40
2022-08-17T11:50:50.659Z,25.40
2022-08-17T11:51:50.652Z,25.34
2022-08-17T11:52:50.642Z,25.48
2022-08-17T11:53:50.640Z,25.51
2022-08-17T11:54:50.622Z,25.52
2022-08-17T11:55:50.615Z,25.58
2022-08-17T11:56:50.606Z,25.51
2022-08-17T11:57:50.774Z,25.52
2022-08-17T11:58:50.594Z,25.51
2022-08-17T11:59:50.576Z,25.58
2022-08-17T12:00:50.574Z,25.44
2022-08-17T12:01:50.557Z,25.58
2022-08-17T12:02:50.555Z,25.58
2022-08-17T12:03:55.286Z,25.58
2022-08-17T12:04:50.629Z,25.63
2022-08-17T12:05:50.543Z,25.74
2022-08-17T12:06:50.526Z,25.85
2022-08-17T12:07:50.753Z,26.01
2022-08-17T12:08:50.515Z,26.10
2022-08-17T12:09:50.501Z,26.31
2022-08-17T12:10:50.499Z,26.59
2022-08-17T12:12:04.645Z,26.83
2022-08-17T12:12:50.500Z,27.23
2022-08-17T12:13:50.459Z,27.78
2022-08-17T12:15:50.465Z,28.37
2022-08-17T12:16:50.440Z,28.60
2022-08-17T12:17:50.435Z,29.06
2022-08-17T12:18:50.425Z,29.46
2022-08-17T12:19:50.411Z,29.84
2022-08-17T12:20:56.073Z,30.11
2022-08-17T12:21:50.400Z,30.61
2022-08-17T12:22:50.477Z,31.00
2022-08-17T12:23:50.390Z,31.42
2022-08-17T12:24:50.386Z,31.86
2022-08-17T12:25:50.380Z,32.04
2022-08-17T12:26:50.369Z,32.11
2022-08-17T12:28:04.955Z,32.15
2022-08-17T12:28:50.359Z,32.20
2022-08-17T12:29:50.354Z,32.08
2022-08-17T12:30:50.348Z,31.98
2022-08-17T12:31:50.342Z,31.72
2022-08-17T12:32:50.337Z,31.60
2022-08-17T12:33:50.339Z,31.47
2022-08-17T12:34:50.332Z,31.32
2022-08-17T12:35:50.323Z,31.00
2022-08-17T12:36:50.320Z,30.78
2022-08-17T12:37:50.571Z,30.56
2022-08-17T12:38:50.312Z,30.33
2022-08-17T12:39:50.349Z,30.14
2022-08-17T12:40:50.296Z,30.11
2022-08-17T12:41:50.438Z,30.33
2022-08-17T12:42:50.291Z,30.46
2022-08-17T12:43:50.282Z,30.55
2022-08-17T12:44:50.588Z,30.56
2022-08-17T12:45:50.281Z,30.62
2022-08-17T12:46:50.276Z,30.58
2022-08-17T12:47:50.354Z,30.51
2022-08-17T12:48:59.535Z,30.36
2022-08-17T12:49:50.249Z,30.54
2022-08-17T12:50:50.258Z,30.62
2022-08-17T12:51:50.240Z,30.63
2022-08-17T12:52:50.237Z,30.54
2022-08-17T12:53:50.229Z,30.36
2022-08-17T12:54:50.222Z,30.13
2022-08-17T12:55:50.222Z,29.98